createdAt,value
2023-02-12T00:01:41.004Z,102442.25
2023-02-12T00:04:09.510Z,102446.84
2023-02-12T00:06:40.392Z,102433.78
2023-02-12T00:09:08.873Z,102430.28
2023-02-12T00:11:37.635Z,102428.66
2023-02-12T00:14:06.046Z,102421.78
2023-02-12T00:16:34.699Z,102423.66
2023-02-12T00:19:03.188Z,102433.38
2023-02-12T00:21:31.921Z,102437.06
2023-02-12T00:24:00.374Z,102430.97
2023-02-12T00:26:29.342Z,102423.94
2023-02-12T00:28:57.829Z,102428.41
2023-02-12T00:31:28.951Z,102440.03
2023-02-12T00:34:01.394Z,102427.84
2023-02-12T00:36:31.338Z,102429.63
2023-02-12T00:39:00.992Z,102424.56
2023-02-12T00:41:30.162Z,102436.91
2023-02-12T00:43:58.895Z,102431.81
2023-02-12T00:46:28.871Z,102430.88
2023-02-12T00:48:57.477Z,102420.53
2023-02-12T00:51:26.336Z,102433.75
2023-02-12T00:53:54.704Z,102436.47
2023-02-12T00:56:23.415Z,102436.53
2023-02-12T00:58:51.848Z,102440.19
2023-02-12T01:01:20.542Z,102435.88
2023-02-12T01:03:49.022Z,102436.91
2023-02-12T01:06:17.949Z,102439.63
2023-02-12T01:08:51.954Z,102437.03
2023-02-12T01:11:20.829Z,102445.09
2023-02-12T01:13:50.489Z,102439.06
2023-02-12T01:16:24.368Z,102425.09
2023-02-12T01:18:55.634Z,102431.19
2023-02-12T01:21:28.187Z,102426.00
2023-02-12T01:23:57.366Z,102427.88
2023-02-12T01:26:26.404Z,102425.31
2023-02-12T01:29:03.902Z,102405.50
2023-02-12T01:31:36.496Z,102425.53
2023-02-12T01:34:06.003Z,102419.38
2023-02-12T01:36:35.476Z,102405.31
2023-02-12T01:39:06.524Z,102401.88
2023-02-12T01:41:39.478Z,102399.28
2023-02-12T01:44:19.554Z,102402.00
2023-02-12T01:47:05.249Z,102392.41
2023-02-12T01:49:42.180Z,102395.94
2023-02-12T01:52:22.822Z,102391.63
2023-02-12T01:54:51.380Z,102385.53
2023-02-12T01:57:21.280Z,102382.13
2023-02-12T01:59:51.111Z,102386.63
2023-02-12T02:02:19.950Z,102383.97
2023-02-12T02:05:02.377Z,102382.31
2023-02-12T02:07:31.707Z,102394.66
2023-02-12T02:10:00.199Z,102389.66
2023-02-12T02:12:49.369Z,102394.09
2023-02-12T02:15:18.739Z,102388.91
2023-02-12T02:18:09.465Z,102400.19
2023-02-12T02:21:24.081Z,102397.66
2023-02-12T02:24:17.256Z,102392.44
2023-02-12T02:27:19.574Z,102380.19
2023-02-12T02:30:34.398Z,102370.59
2023-02-12T02:33:32.766Z,102364.41
2023-02-12T02:36:26.307Z,102368.00
2023-02-12T02:39:39.074Z,102360.19
2023-02-12T02:42:23.898Z,102360.25
2023-02-12T02:45:38.165Z,102346.22
2023-02-12T02:48:24.958Z,102354.25
2023-02-12T02:51:19.386Z,102336.63
2023-02-12T02:53:52.331Z,102333.19
2023-02-12T02:56:21.615Z,102329.03
2023-02-12T02:58:59.949Z,102332.47
2023-02-12T03:01:48.337Z,102334.50
2023-02-12T03:04:31.198Z,102335.34
2023-02-12T03:07:04.719Z,102332.75
2023-02-12T03:09:44.192Z,102341.50
2023-02-12T03:12:19.776Z,102342.44
2023-02-12T03:15:37.250Z,102328.59
2023-02-12T03:18:10.472Z,102329.44
2023-02-12T03:20:51.182Z,102340.00
2023-02-12T03:23:30.099Z,102301.00
2023-02-12T03:26:10.331Z,102314.50
2023-02-12T03:28:39.097Z,102321.66
2023-02-12T03:31:50.814Z,102327.03
2023-02-12T03:34:38.679Z,102318.28
2023-02-12T03:37:25.090Z,102322.75
2023-02-12T03:39:59.917Z,102326.38
2023-02-12T03:43:09.321Z,102319.38
2023-02-12T03:46:48.233Z,102310.63
2023-02-12T03:49:32.599Z,102310.63
2023-02-12T03:52:01.062Z,102313.56
2023-02-12T03:54:29.749Z,102324.84
2023-02-12T03:57:12.679Z,102337.25
2023-02-12T03:59:41.289Z,102337.31
2023-02-12T04:02:09.714Z,102341.75
2023-02-12T04:04:38.612Z,102346.28
2023-02-12T04:07:07.145Z,102349.88
2023-02-12T04:09:35.845Z,102346.34
2023-02-12T04:12:15.969Z,102343.69
2023-02-12T04:15:06.611Z,102341.16
2023-02-12T04:17:44.827Z,102349.09
2023-02-12T04:21:11.992Z,102351.81
2023-02-12T04:23:54.012Z,102351.03
2023-02-12T04:26:57.852Z,102338.78
2023-02-12T04:29:49.733Z,102333.50
2023-02-12T04:32:34.577Z,102339.72
2023-02-12T04:35:29.437Z,102346.00
2023-02-12T04:38:08.952Z,102339.88
2023-02-12T04:40:39.857Z,102344.44
2023-02-12T04:43:08.892Z,102341.63
2023-02-12T04:45:37.604Z,102330.25
2023-02-12T04:48:06.411Z,102339.94
2023-02-12T04:50:43.563Z,102340.00
2023-02-12T04:53:12.226Z,102340.13
2023-02-12T04:55:40.571Z,102334.81
2023-02-12T04:58:09.400Z,102336.63
2023-02-12T05:00:37.781Z,102329.63
2023-02-12T05:03:06.551Z,102336.69
2023-02-12T05:05:35.209Z,102339.47
2023-02-12T05:08:03.879Z,102321.06
2023-02-12T05:10:32.233Z,102332.97
2023-02-12T05:13:00.949Z,102343.50
2023-02-12T05:15:29.396Z,102336.16
2023-02-12T05:17:58.158Z,102339.91
2023-02-12T05:20:26.628Z,102326.66
2023-02-12T05:22:55.961Z,102339.34
2023-02-12T05:25:24.263Z,102329.25
2023-02-12T05:27:52.972Z,102325.22
2023-02-12T05:30:21.589Z,102322.44
2023-02-12T05:32:50.280Z,102323.50
2023-02-12T05:35:18.669Z,102315.94
2023-02-12T05:37:47.269Z,102319.59
2023-02-12T05:40:16.174Z,102328.41
2023-02-12T05:42:44.937Z,102322.53
2023-02-12T05:45:13.321Z,102312.66
2023-02-12T05:47:42.157Z,102322.75
2023-02-12T05:50:11.198Z,102317.03
2023-02-12T05:52:39.882Z,102325.56
2023-02-12T05:55:08.676Z,102318.84
2023-02-12T05:57:37.374Z,102335.41
2023-02-12T06:00:06.864Z,102347.72
2023-02-12T06:02:41.033Z,102340.84
2023-02-12T06:05:09.610Z,102343.03
2023-02-12T06:07:38.620Z,102342.00
2023-02-12T06:10:08.267Z,102346.22
2023-02-12T06:12:37.341Z,102346.59
2023-02-12T06:15:06.071Z,102360.25
2023-02-12T06:17:35.179Z,102371.75
2023-02-12T06:20:04.034Z,102379.06
2023-02-12T06:22:32.869Z,102386.00
2023-02-12T06:25:01.270Z,102382.78
2023-02-12T06:27:30.008Z,102382.44
2023-02-12T06:29:58.457Z,102388.88
2023-02-12T06:32:27.202Z,102384.47
2023-02-12T06:34:55.744Z,102388.66
2023-02-12T06:37:24.460Z,102397.59
2023-02-12T06:39:52.893Z,102401.19
2023-02-12T06:42:21.564Z,102404.81
2023-02-12T06:44:52.684Z,102402.31
2023-02-12T06:47:21.838Z,102410.41
2023-02-12T06:49:50.204Z,102406.09
2023-02-12T06:52:18.907Z,102410.41
2023-02-12T06:54:47.317Z,102421.41
2023-02-12T06:57:16.042Z,102421.47
2023-02-12T06:59:44.424Z,102416.00
2023-02-12T07:02:13.108Z,102417.34
2023-02-12T07:04:41.588Z,102411.53
2023-02-12T07:07:10.327Z,102407.50
2023-02-12T07:09:38.726Z,102406.22
2023-02-12T07:12:07.635Z,102410.41
2023-02-12T07:14:36.063Z,102405.84
2023-02-12T07:17:05.681Z,102417.00
2023-02-12T07:19:34.065Z,102431.41
2023-02-12T07:22:02.791Z,102437.03
2023-02-12T07:24:31.226Z,102438.75
2023-02-12T07:26:59.891Z,102427.56
2023-02-12T07:29:28.205Z,102434.06
2023-02-12T07:31:57.078Z,102450.16
2023-02-12T07:34:25.464Z,102454.09
2023-02-12T07:36:54.136Z,102448.06
2023-02-12T07:39:22.615Z,102460.41
2023-02-12T07:41:51.329Z,102471.38
2023-02-12T07:44:19.815Z,102462.94
2023-02-12T07:46:49.339Z,102461.53
2023-02-12T07:49:21.654Z,102455.69
2023-02-12T07:51:50.616Z,102458.25
2023-02-12T07:54:18.958Z,102468.31
2023-02-12T07:56:47.691Z,102468.50
2023-02-12T07:59:17.882Z,102472.25
2023-02-12T08:01:48.962Z,102481.28
2023-02-12T08:04:20.268Z,102474.56
2023-02-12T08:06:51.360Z,102465.97
2023-02-12T08:09:22.886Z,102478.22
2023-02-12T08:11:51.775Z,102478.53
2023-02-12T08:14:21.318Z,102476.09
2023-02-12T08:16:50.836Z,102476.09
2023-02-12T08:19:22.730Z,102485.09
2023-02-12T08:21:54.484Z,102496.69
2023-02-12T08:24:23.439Z,102509.25
2023-02-12T08:26:52.551Z,102513.72
2023-02-12T08:29:26.521Z,102505.91
2023-02-12T08:32:02.787Z,102516.53
2023-02-12T08:34:34.176Z,102512.22
2023-02-12T08:37:03.541Z,102511.59
2023-02-12T08:39:32.065Z,102520.34
2023-02-12T08:42:01.774Z,102525.72
2023-02-12T08:44:30.431Z,102522.13
2023-02-12T08:46:59.167Z,102516.97
2023-02-12T08:49:29.515Z,102516.16
2023-02-12T08:51:59.179Z,102519.72
2023-02-12T08:54:28.725Z,102508.19
2023-02-12T08:56:58.926Z,102507.41
2023-02-12T08:59:27.372Z,102510.13
2023-02-12T09:01:56.068Z,102510.97
2023-02-12T09:04:28.448Z,102505.03
2023-02-12T09:06:57.274Z,102510.13
2023-02-12T09:09:25.638Z,102512.84
2023-02-12T09:11:54.356Z,102509.47
2023-02-12T09:14:24.606Z,102503.31
2023-02-12T09:16:54.432Z,102499.88
2023-02-12T09:19:23.126Z,102504.25
2023-02-12T09:21:56.413Z,102505.59
2023-02-12T09:24:28.332Z,102518.47
2023-02-12T09:26:57.163Z,102507.69
2023-02-12T09:29:25.620Z,102520.16
2023-02-12T09:31:54.625Z,102508.91
2023-02-12T09:34:23.287Z,102513.78
2023-02-12T09:36:52.103Z,102519.44
2023-02-12T09:39:20.440Z,102524.28
2023-02-12T09:42:52.554Z,102524.69
2023-02-12T09:45:26.801Z,102515.94
2023-02-12T09:48:07.561Z,102534.44
2023-02-12T09:50:57.112Z,102521.31
2023-02-12T09:53:29.843Z,102514.44
2023-02-12T09:55:58.824Z,102508.16
2023-02-12T09:58:37.033Z,102520.53
2023-02-12T10:01:16.491Z,102508.16
2023-02-12T10:03:46.496Z,102516.94
2023-02-12T10:06:26.161Z,102526.84
2023-02-12T10:09:35.924Z,102531.31
2023-02-12T10:12:33.130Z,102534.03
2023-02-12T10:15:39.503Z,102542.16
2023-02-12T10:18:45.320Z,102548.34
2023-02-12T10:21:45.098Z,102545.75
2023-02-12T10:24:47.608Z,102539.66
2023-02-12T10:27:18.299Z,102543.34
2023-02-12T10:29:47.603Z,102550.53
2023-02-12T10:32:31.408Z,102544.44
2023-02-12T10:34:59.613Z,102535.59
2023-02-12T10:37:53.194Z,102538.63
2023-02-12T10:40:30.139Z,102529.59
2023-02-12T10:42:59.084Z,102527.25
2023-02-12T10:45:35.286Z,102530.06
2023-02-12T10:48:19.039Z,102517.22
2023-02-12T10:51:32.613Z,102520.38
2023-02-12T10:54:38.152Z,102525.75
2023-02-12T10:57:24.364Z,102523.63
2023-02-12T10:59:57.502Z,102520.56
2023-02-12T11:02:29.770Z,102508.22
2023-02-12T11:04:59.948Z,102527.41
2023-02-12T11:07:28.759Z,102514.19
2023-02-12T11:09:57.677Z,102524.56
2023-02-12T11:12:48.742Z,102522.34
2023-02-12T11:15:22.570Z,102531.63
2023-02-12T11:18:05.328Z,102530.41
2023-02-12T11:20:49.221Z,102529.94
2023-02-12T11:23:45.664Z,102529.16
2023-02-12T11:26:20.440Z,102530.72
2023-02-12T11:29:16.689Z,102525.38
2023-02-12T11:31:59.929Z,102524.75
2023-02-12T11:34:30.152Z,102530.03
2023-02-12T11:36:59.065Z,102533.94
2023-02-12T11:39:39.111Z,102524.47
2023-02-12T11:42:22.665Z,102534.44
2023-02-12T11:44:58.485Z,102539.69
2023-02-12T11:47:34.232Z,102543.38
2023-02-12T11:50:29.547Z,102545.69
2023-02-12T11:53:42.145Z,102538.81
2023-02-12T11:56:13.948Z,102539.94
2023-02-12T11:58:42.841Z,102541.84
2023-02-12T12:01:30.803Z,102543.53
2023-02-12T12:04:04.001Z,102540.72
2023-02-12T12:06:53.847Z,102534.19
2023-02-12T12:09:36.071Z,102526.72
2023-02-12T12:12:14.073Z,102531.34
2023-02-12T12:15:16.749Z,102536.03
2023-02-12T12:18:17.984Z,102526.72
2023-02-12T12:20:55.768Z,102516.88
2023-02-12T12:23:41.053Z,102525.03
2023-02-12T12:26:21.053Z,102520.06
2023-02-12T12:29:18.961Z,102508.09
2023-02-12T12:31:57.386Z,102510.53
2023-02-12T12:34:27.911Z,102508.63
2023-02-12T12:37:12.795Z,102517.16
2023-02-12T12:39:41.592Z,102508.63
2023-02-12T12:42:43.932Z,102501.22
2023-02-12T12:45:43.646Z,102504.88
2023-02-12T12:48:46.342Z,102502.47
2023-02-12T12:51:47.586Z,102509.19
2023-02-12T12:54:32.043Z,102500.19
2023-02-12T12:57:40.120Z,102510.06
2023-02-12T13:01:07.067Z,102515.03
2023-02-12T13:03:59.363Z,102505.31
2023-02-12T13:06:37.303Z,102513.34
2023-02-12T13:09:24.216Z,102503.81
2023-02-12T13:12:43.942Z,102508.63
2023-02-12T13:15:20.532Z,102506.94
2023-02-12T13:18:13.977Z,102517.25
2023-02-12T13:21:18.175Z,102495.28
2023-02-12T13:24:08.271Z,102496.50
2023-02-12T13:26:59.436Z,102498.56
2023-02-12T13:29:39.297Z,102494.78
2023-02-12T13:32:29.331Z,102484.97
2023-02-12T13:34:58.512Z,102491.91
2023-02-12T13:37:46.895Z,102490.50
2023-02-12T13:40:27.901Z,102492.34
2023-02-12T13:43:28.099Z,102488.78
2023-02-12T13:46:09.176Z,102477.38
2023-02-12T13:49:22.406Z,102485.66
2023-02-12T13:52:13.672Z,102485.75
2023-02-12T13:55:01.711Z,102493.66
2023-02-12T13:57:30.438Z,102489.03
2023-02-12T14:00:00.051Z,102495.19
2023-02-12T14:02:39.332Z,102501.22
2023-02-12T14:05:29.613Z,102513.75
2023-02-12T14:08:05.858Z,102510.13
2023-02-12T14:10:38.360Z,102506.63
2023-02-12T14:13:13.014Z,102509.88
2023-02-12T14:15:45.140Z,102512.53
2023-02-12T14:18:36.648Z,102508.00
2023-02-12T14:21:14.200Z,102503.78
2023-02-12T14:23:44.960Z,102500.34
2023-02-12T14:26:14.845Z,102506.69
2023-02-12T14:28:55.077Z,102510.13
2023-02-12T14:31:35.383Z,102515.38
2023-02-12T14:34:07.850Z,102519.91
2023-02-12T14:36:41.628Z,102506.69
2023-02-12T14:39:22.482Z,102516.28
2023-02-12T14:42:06.392Z,102522.56
2023-02-12T14:44:59.158Z,102523.50
2023-02-12T14:47:30.439Z,102513.38
2023-02-12T14:50:20.220Z,102531.72
2023-02-12T14:52:58.112Z,102525.69
2023-02-12T14:55:34.540Z,102528.81
2023-02-12T14:58:06.333Z,102538.78
2023-02-12T15:00:40.380Z,102537.09
2023-02-12T15:03:14.763Z,102543.38
2023-02-12T15:05:58.151Z,102545.38
2023-02-12T15:09:01.471Z,102544.34
2023-02-12T15:11:47.759Z,102541.69
2023-02-12T15:14:40.629Z,102547.19
2023-02-12T15:17:10.284Z,102541.09
2023-02-12T15:19:47.832Z,102538.34
2023-02-12T15:22:42.299Z,102548.09
2023-02-12T15:25:31.086Z,102541.78
2023-02-12T15:28:36.641Z,102549.13
2023-02-12T15:31:09.549Z,102553.66
2023-02-12T15:33:45.830Z,102549.44
2023-02-12T15:36:21.419Z,102552.13
2023-02-12T15:38:56.272Z,102560.22
2023-02-12T15:41:33.233Z,102567.28
2023-02-12T15:44:04.735Z,102551.25
2023-02-12T15:46:33.281Z,102566.72
2023-02-12T15:49:03.583Z,102573.03
2023-02-12T15:51:39.881Z,102565.31
2023-02-12T15:54:08.632Z,102573.97
2023-02-12T15:56:38.033Z,102572.50
2023-02-12T15:59:06.923Z,102571.50
2023-02-12T16:01:35.931Z,102574.16
2023-02-12T16:04:06.938Z,102581.25
2023-02-12T16:06:36.961Z,102576.16
2023-02-12T16:09:17.290Z,102567.09
2023-02-12T16:11:47.200Z,102571.16
2023-02-12T16:14:35.251Z,102568.19
2023-02-12T16:17:03.765Z,102572.19
2023-02-12T16:19:37.283Z,102587.47
2023-02-12T16:22:14.605Z,102586.97
2023-02-12T16:24:53.556Z,102579.72
2023-02-12T16:27:25.677Z,102576.66
2023-02-12T16:30:04.461Z,102590.41
2023-02-12T16:32:38.482Z,102588.81
2023-02-12T16:35:10.214Z,102606.69
2023-02-12T16:37:38.659Z,102607.25
2023-02-12T16:40:13.258Z,102605.19
2023-02-12T16:42:47.666Z,102611.13
2023-02-12T16:45:28.742Z,102605.03
2023-02-12T16:48:09.544Z,102624.78
2023-02-12T16:50:54.573Z,102618.13
2023-02-12T16:53:31.733Z,102629.66
2023-02-12T16:56:01.321Z,102631.13
2023-02-12T16:58:29.900Z,102625.19
2023-02-12T17:00:59.137Z,102635.19
2023-02-12T17:03:27.843Z,102641.44
2023-02-12T17:05:57.145Z,102642.66
2023-02-12T17:08:26.144Z,102643.69
2023-02-12T17:10:55.070Z,102652.78
2023-02-12T17:13:23.524Z,102661.81
2023-02-12T17:15:58.307Z,102661.97
2023-02-12T17:18:27.802Z,102663.94
2023-02-12T17:21:02.236Z,102657.56
2023-02-12T17:23:31.065Z,102662.13
2023-02-12T17:25:59.970Z,102658.13
2023-02-12T17:28:28.568Z,102661.72
2023-02-12T17:30:58.474Z,102669.63
2023-02-12T17:33:27.864Z,102680.44
2023-02-12T17:35:58.954Z,102676.22
2023-02-12T17:38:27.419Z,102669.97
2023-02-12T17:40:56.624Z,102676.06
2023-02-12T17:43:25.365Z,102678.56
2023-02-12T17:45:54.295Z,102679.06
2023-02-12T17:48:25.026Z,102686.72
2023-02-12T17:50:57.155Z,102698.06
2023-02-12T17:53:25.870Z,102690.88
2023-02-12T17:55:54.964Z,102697.66
2023-02-12T17:58:23.526Z,102704.94
2023-02-12T18:00:52.449Z,102711.31
2023-02-12T18:03:21.017Z,102716.06
2023-02-12T18:05:49.884Z,102704.34
2023-02-12T18:08:18.634Z,102708.47
2023-02-12T18:10:47.516Z,102712.78
2023-02-12T18:13:15.965Z,102714.41
2023-02-12T18:15:44.806Z,102698.34
2023-02-12T18:18:13.405Z,102706.34
2023-02-12T18:20:42.297Z,102708.38
2023-02-12T18:23:11.039Z,102710.28
2023-02-12T18:25:43.585Z,102711.41
2023-02-12T18:28:12.333Z,102708.19
2023-02-12T18:30:43.381Z,102716.09
2023-02-12T18:33:12.699Z,102709.06
2023-02-12T18:35:41.972Z,102713.63
2023-02-12T18:38:10.775Z,102718.47
2023-02-12T18:40:42.429Z,102720.56
2023-02-12T18:43:11.002Z,102721.66
2023-02-12T18:45:40.360Z,102725.41
2023-02-12T18:48:09.527Z,102727.28
2023-02-12T18:50:38.761Z,102732.75
2023-02-12T18:53:07.211Z,102737.56
2023-02-12T18:55:39.151Z,102736.75
2023-02-12T18:58:07.513Z,102735.19
2023-02-12T19:00:36.521Z,102733.72
2023-02-12T19:03:05.011Z,102734.81
2023-02-12T19:05:33.794Z,102742.03
2023-02-12T19:08:02.243Z,102735.13
2023-02-12T19:10:31.172Z,102744.69
2023-02-12T19:12:59.578Z,102748.22
2023-02-12T19:15:28.118Z,102753.94
2023-02-12T19:17:56.566Z,102752.91
2023-02-12T19:20:25.095Z,102755.00
2023-02-12T19:22:53.381Z,102752.72
2023-02-12T19:25:22.228Z,102762.13
2023-02-12T19:27:50.501Z,102757.16
2023-02-12T19:30:19.702Z,102761.16
2023-02-12T19:32:48.008Z,102765.78
2023-02-12T19:35:16.648Z,102763.13
2023-02-12T19:37:44.966Z,102764.75
2023-02-12T19:40:14.339Z,102762.78
2023-02-12T19:42:42.638Z,102761.94
2023-02-12T19:45:11.302Z,102768.19
2023-02-12T19:47:39.745Z,102769.22
2023-02-12T19:50:08.873Z,102773.84
2023-02-12T19:52:37.315Z,102778.56
2023-02-12T19:55:06.482Z,102777.06
2023-02-12T19:57:37.076Z,102787.72
2023-02-12T20:00:08.498Z,102787.28
2023-02-12T20:02:36.999Z,102797.16
2023-02-12T20:05:06.146Z,102799.81
2023-02-12T20:07:34.477Z,102794.84
2023-02-12T20:10:03.378Z,102795.03
2023-02-12T20:12:31.724Z,102798.88
2023-02-12T20:15:02.790Z,102801.66
2023-02-12T20:17:32.544Z,102800.13
2023-02-12T20:20:01.296Z,102803.72
2023-02-12T20:22:29.693Z,102809.19
2023-02-12T20:24:59.392Z,102806.13
2023-02-12T20:27:28.581Z,102800.09
2023-02-12T20:29:57.345Z,102804.50
2023-02-12T20:32:25.779Z,102809.81
2023-02-12T20:34:54.720Z,102806.44
2023-02-12T20:37:23.032Z,102809.25
2023-02-12T20:39:52.130Z,102810.28
2023-02-12T20:42:20.545Z,102814.44
2023-02-12T20:44:49.315Z,102816.84
2023-02-12T20:47:17.647Z,102820.16
2023-02-12T20:49:46.368Z,102823.34
2023-02-12T20:52:14.888Z,102824.53
2023-02-12T20:54:43.702Z,102825.50
2023-02-12T20:57:12.407Z,102833.56
2023-02-12T20:59:42.441Z,102830.50
2023-02-12T21:02:12.242Z,102821.34
2023-02-12T21:04:41.100Z,102826.44
2023-02-12T21:07:09.385Z,102826.28
2023-02-12T21:09:38.013Z,102831.94
2023-02-12T21:12:06.485Z,102838.97
2023-02-12T21:14:35.112Z,102833.78
2023-02-12T21:17:03.424Z,102841.16
2023-02-12T21:19:32.181Z,102838.81
2023-02-12T21:22:00.590Z,102842.34
2023-02-12T21:24:29.231Z,102847.09
2023-02-12T21:26:57.816Z,102836.59
2023-02-12T21:29:27.644Z,102841.84
2023-02-12T21:31:56.083Z,102849.28
2023-02-12T21:34:24.721Z,102857.50
2023-02-12T21:36:55.460Z,102846.47
2023-02-12T21:39:27.788Z,102851.63
2023-02-12T21:42:02.594Z,102854.50
2023-02-12T21:44:32.908Z,102859.13
2023-02-12T21:47:01.224Z,102860.94
2023-02-12T21:49:30.000Z,102859.28
2023-02-12T21:52:02.235Z,102868.38
2023-02-12T21:54:31.376Z,102863.19
2023-02-12T21:56:59.871Z,102866.94
2023-02-12T21:59:31.755Z,102859.41
2023-02-12T22:02:00.890Z,102867.06
2023-02-12T22:04:30.046Z,102868.41
2023-02-12T22:06:59.796Z,102872.94
2023-02-12T22:09:28.366Z,102874.88
2023-02-12T22:11:57.169Z,102877.41
2023-02-12T22:14:25.905Z,102871.44
2023-02-12T22:16:54.145Z,102878.63
2023-02-12T22:19:23.014Z,102877.06
2023-02-12T22:21:51.923Z,102876.34
2023-02-12T22:24:20.750Z,102875.84
2023-02-12T22:26:49.049Z,102886.31
2023-02-12T22:29:17.972Z,102872.41
2023-02-12T22:31:46.881Z,102882.97
2023-02-12T22:34:17.992Z,102874.47
2023-02-12T22:36:46.488Z,102886.78
2023-02-12T22:39:15.568Z,102883.31
2023-02-12T22:41:43.865Z,102894.03
2023-02-12T22:44:13.432Z,102900.25
2023-02-12T22:46:43.125Z,102899.47
2023-02-12T22:49:11.862Z,102904.94
2023-02-12T22:51:40.426Z,102899.72
2023-02-12T22:54:13.898Z,102908.72
2023-02-12T22:56:42.503Z,102907.03
2023-02-12T22:59:11.991Z,102915.19
2023-02-12T23:01:40.589Z,102917.09
2023-02-12T23:04:15.349Z,102918.97
2023-02-12T23:06:44.095Z,102907.78
2023-02-12T23:09:15.644Z,102919.25
2023-02-12T23:11:44.156Z,102920.31
2023-02-12T23:14:13.046Z,102924.69
2023-02-12T23:16:41.509Z,102919.59
2023-02-12T23:19:10.565Z,102921.47
2023-02-12T23:21:39.180Z,102923.25
2023-02-12T23:24:08.180Z,102925.19
2023-02-12T23:26:36.859Z,102935.75
2023-02-12T23:29:05.665Z,102940.34
2023-02-12T23:31:34.297Z,102936.88
2023-02-12T23:34:03.411Z,102938.75
2023-02-12T23:36:31.916Z,102945.03
2023-02-12T23:39:00.664Z,102942.44
2023-02-12T23:41:29.140Z,102937.13
2023-02-12T23:43:58.590Z,102940.72
2023-02-12T23:46:27.011Z,102934.63
2023-02-12T23:48:55.924Z,102931.22
2023-02-12T23:51:24.474Z,102928.56
2023-02-12T23:53:53.300Z,102926.06
2023-02-12T23:56:21.747Z,102930.50
2023-02-12T23:58:50.461Z,102939.41
